sensor_id;sensor_type;location;lat;lon;timestamp;temperature;humidity
20568;DHT22;10442;49.932;11.592;2022-09-27T00:01:07;14.80;67.80
20568;DHT22;10442;49.932;11.592;2022-09-27T00:03:35;14.70;67.70
20568;DHT22;10442;49.932;11.592;2022-09-27T00:06:07;14.70;67.80
20568;DHT22;10442;49.932;11.592;2022-09-27T00:08:35;14.70;68.20
20568;DHT22;10442;49.932;11.592;2022-09-27T00:11:06;14.60;68.10
20568;DHT22;10442;49.932;11.592;2022-09-27T00:13:35;14.70;68.30
20568;DHT22;10442;49.932;11.592;2022-09-27T00:16:03;14.60;68.30
20568;DHT22;10442;49.932;11.592;2022-09-27T00:18:32;14.60;68.50
20568;DHT22;10442;49.932;11.592;2022-09-27T00:21:08;14.60;68.70
20568;DHT22;10442;49.932;11.592;2022-09-27T00:23:36;14.60;68.90
20568;DHT22;10442;49.932;11.592;2022-09-27T00:26:04;14.50;69.00
20568;DHT22;10442;49.932;11.592;2022-09-27T00:28:33;14.50;69.00
20568;DHT22;10442;49.932;11.592;2022-09-27T00:31:01;14.50;69.10
20568;DHT22;10442;49.932;11.592;2022-09-27T00:33:29;14.50;69.20
20568;DHT22;10442;49.932;11.592;2022-09-27T00:36:04;14.50;69.50
20568;DHT22;10442;49.932;11.592;2022-09-27T00:38:32;14.50;69.80
20568;DHT22;10442;49.932;11.592;2022-09-27T00:40:59;14.50;69.90
20568;DHT22;10442;49.932;11.592;2022-09-27T00:43:54;14.40;70.10
20568;DHT22;10442;49.932;11.592;2022-09-27T00:46:33;14.50;70.30
20568;DHT22;10442;49.932;11.592;2022-09-27T00:49:23;14.40;70.50
20568;DHT22;10442;49.932;11.592;2022-09-27T00:51:59;14.40;70.70
20568;DHT22;10442;49.932;11.592;2022-09-27T00:54:28;14.40;70.80
20568;DHT22;10442;49.932;11.592;2022-09-27T00:56:57;14.30;71.00
20568;DHT22;10442;49.932;11.592;2022-09-27T01:01:57;14.30;71.50
20568;DHT22;10442;49.932;11.592;2022-09-27T01:04:27;14.30;71.30
20568;DHT22;10442;49.932;11.592;2022-09-27T01:06:56;14.30;71.70
20568;DHT22;10442;49.932;11.592;2022-09-27T01:09:23;14.30;72.00
20568;DHT22;10442;49.932;11.592;2022-09-27T01:14:57;14.30;72.10
20568;DHT22;10442;49.932;11.592;2022-09-27T01:25:10;14.30;72.60
20568;DHT22;10442;49.932;11.592;2022-09-27T01:30:44;14.30;73.70
20568;DHT22;10442;49.932;11.592;2022-09-27T01:33:21;14.30;72.80
20568;DHT22;10442;49.932;11.592;2022-09-27T01:38:50;14.20;73.10
20568;DHT22;10442;49.932;11.592;2022-09-27T01:41:28;14.20;72.90
20568;DHT22;10442;49.932;11.592;2022-09-27T01:44:39;14.20;73.30
20568;DHT22;10442;49.932;11.592;2022-09-27T01:47:20;14.20;73.30
20568;DHT22;10442;49.932;11.592;2022-09-27T01:50:00;14.20;73.50
20568;DHT22;10442;49.932;11.592;2022-09-27T01:52:49;14.20;74.00
20568;DHT22;10442;49.932;11.592;2022-09-27T01:55:23;14.10;73.90
20568;DHT22;10442;49.932;11.592;2022-09-27T01:58:20;14.10;74.10
20568;DHT22;10442;49.932;11.592;2022-09-27T02:00:53;14.10;73.90
20568;DHT22;10442;49.932;11.592;2022-09-27T02:03:28;14.10;74.10
20568;DHT22;10442;49.932;11.592;2022-09-27T02:06:22;14.00;74.30
20568;DHT22;10442;49.932;11.592;2022-09-27T02:09:16;14.00;74.30
20568;DHT22;10442;49.932;11.592;2022-09-27T02:12:12;14.00;74.50
20568;DHT22;10442;49.932;11.592;2022-09-27T02:15:08;14.00;74.60
20568;DHT22;10442;49.932;11.592;2022-09-27T02:20:28;13.90;74.70
20568;DHT22;10442;49.932;11.592;2022-09-27T02:23:26;13.90;74.90
20568;DHT22;10442;49.932;11.592;2022-09-27T02:26:11;13.80;75.00
20568;DHT22;10442;49.932;11.592;2022-09-27T02:31:30;13.80;75.30
20568;DHT22;10442;49.932;11.592;2022-09-27T02:34:06;13.80;75.90
20568;DHT22;10442;49.932;11.592;2022-09-27T02:36:35;13.70;75.40
20568;DHT22;10442;49.932;11.592;2022-09-27T02:39:04;13.70;75.20
20568;DHT22;10442;49.932;11.592;2022-09-27T02:41:33;13.70;75.50
20568;DHT22;10442;49.932;11.592;2022-09-27T02:44:04;13.70;75.70
20568;DHT22;10442;49.932;11.592;2022-09-27T02:55:51;13.70;75.60
20568;DHT22;10442;49.932;11.592;2022-09-27T03:04:44;13.60;75.80
20568;DHT22;10442;49.932;11.592;2022-09-27T03:07:14;13.60;75.80
20568;DHT22;10442;49.932;11.592;2022-09-27T03:09:47;13.60;75.90
20568;DHT22;10442;49.932;11.592;2022-09-27T03:12:16;13.50;75.90
20568;DHT22;10442;49.932;11.592;2022-09-27T03:15:01;13.50;75.90
20568;DHT22;10442;49.932;11.592;2022-09-27T03:18:02;13.50;76.00
20568;DHT22;10442;49.932;11.592;2022-09-27T03:20:48;13.50;76.00
20568;DHT22;10442;49.932;11.592;2022-09-27T03:23:19;13.40;75.90
20568;DHT22;10442;49.932;11.592;2022-09-27T03:25:48;13.40;76.00
20568;DHT22;10442;49.932;11.592;2022-09-27T03:28:17;13.40;76.00
20568;DHT22;10442;49.932;11.592;2022-09-27T03:30:45;13.40;76.00
20568;DHT22;10442;49.932;11.592;2022-09-27T03:33:28;13.40;75.90
20568;DHT22;10442;49.932;11.592;2022-09-27T03:36:00;13.40;75.90
20568;DHT22;10442;49.932;11.592;2022-09-27T03:38:28;13.40;75.90
20568;DHT22;10442;49.932;11.592;2022-09-27T03:40:55;13.40;75.80
20568;DHT22;10442;49.932;11.592;2022-09-27T03:43:24;13.40;75.80
20568;DHT22;10442;49.932;11.592;2022-09-27T03:45:56;13.40;75.90
20568;DHT22;10442;49.932;11.592;2022-09-27T03:48:24;13.40;75.90
20568;DHT22;10442;49.932;11.592;2022-09-27T03:50:56;13.40;75.70
20568;DHT22;10442;49.932;11.592;2022-09-27T03:53:24;13.40;75.80
20568;DHT22;10442;49.932;11.592;2022-09-27T03:55:51;13.30;75.90
20568;DHT22;10442;49.932;11.592;2022-09-27T03:58:19;13.40;76.10
20568;DHT22;10442;49.932;11.592;2022-09-27T04:00:47;13.40;76.20
20568;DHT22;10442;49.932;11.592;2022-09-27T04:03:14;13.30;76.10
20568;DHT22;10442;49.932;11.592;2022-09-27T04:06:02;13.30;76.10
20568;DHT22;10442;49.932;11.592;2022-09-27T04:08:37;13.30;76.30
20568;DHT22;10442;49.932;11.592;2022-09-27T04:11:05;13.40;76.40
20568;DHT22;10442;49.932;11.592;2022-09-27T04:13:34;13.30;76.60
20568;DHT22;10442;49.932;11.592;2022-09-27T04:16:01;13.30;76.70
20568;DHT22;10442;49.932;11.592;2022-09-27T04:18:44;13.30;76.70
20568;DHT22;10442;49.932;11.592;2022-09-27T04:21:11;13.30;76.80
20568;DHT22;10442;49.932;11.592;2022-09-27T04:23:46;13.30;76.80
20568;DHT22;10442;49.932;11.592;2022-09-27T04:26:16;13.30;77.00
20568;DHT22;10442;49.932;11.592;2022-09-27T04:28:50;13.30;77.10
20568;DHT22;10442;49.932;11.592;2022-09-27T04:31:21;13.30;77.10
20568;DHT22;10442;49.932;11.592;2022-09-27T04:34:07;13.30;77.30
20568;DHT22;10442;49.932;11.592;2022-09-27T04:36:35;13.30;77.30
20568;DHT22;10442;49.932;11.592;2022-09-27T04:39:17;13.30;77.30
20568;DHT22;10442;49.932;11.592;2022-09-27T04:41:46;13.30;77.40
20568;DHT22;10442;49.932;11.592;2022-09-27T04:44:14;13.30;77.30
20568;DHT22;10442;49.932;11.592;2022-09-27T04:46:45;13.30;77.40
20568;DHT22;10442;49.932;11.592;2022-09-27T04:49:13;13.30;77.50
20568;DHT22;10442;49.932;11.592;2022-09-27T04:51:44;13.30;77.50
20568;DHT22;10442;49.932;11.592;2022-09-27T04:54:12;13.30;77.50
20568;DHT22;10442;49.932;11.592;2022-09-27T04:56:49;13.30;77.40
20568;DHT22;10442;49.932;11.592;2022-09-27T04:59:17;13.40;77.40
20568;DHT22;10442;49.932;11.592;2022-09-27T05:01:45;13.40;77.50
20568;DHT22;10442;49.932;11.592;2022-09-27T05:04:36;13.40;77.40
20568;DHT22;10442;49.932;11.592;2022-09-27T05:07:05;13.40;77.50
20568;DHT22;10442;49.932;11.592;2022-09-27T05:09:40;13.40;77.50
20568;DHT22;10442;49.932;11.592;2022-09-27T05:12:08;13.40;77.40
20568;DHT22;10442;49.932;11.592;2022-09-27T05:14:41;13.40;77.50
20568;DHT22;10442;49.932;11.592;2022-09-27T05:17:15;13.40;77.50
20568;DHT22;10442;49.932;11.592;2022-09-27T05:20:03;13.40;77.60
20568;DHT22;10442;49.932;11.592;2022-09-27T05:22:42;13.40;77.80
20568;DHT22;10442;49.932;11.592;2022-09-27T05:25:10;13.40;77.70
20568;DHT22;10442;49.932;11.592;2022-09-27T05:27:37;13.40;78.00
20568;DHT22;10442;49.932;11.592;2022-09-27T05:30:06;13.40;77.90
20568;DHT22;10442;49.932;11.592;2022-09-27T05:32:46;13.40;77.90
20568;DHT22;10442;49.932;11.592;2022-09-27T05:35:25;13.40;78.60
20568;DHT22;10442;49.932;11.592;2022-09-27T05:37:57;13.40;78.00
20568;DHT22;10442;49.932;11.592;2022-09-27T05:40:29;13.40;78.00
20568;DHT22;10442;49.932;11.592;2022-09-27T05:43:08;13.30;77.90
20568;DHT22;10442;49.932;11.592;2022-09-27T05:45:36;13.30;77.40
20568;DHT22;10442;49.932;11.592;2022-09-27T05:48:06;13.30;77.30
20568;DHT22;10442;49.932;11.592;2022-09-27T05:50:42;13.30;77.20
20568;DHT22;10442;49.932;11.592;2022-09-27T05:53:10;13.20;76.90
20568;DHT22;10442;49.932;11.592;2022-09-27T05:55:40;13.20;76.90
20568;DHT22;10442;49.932;11.592;2022-09-27T05:58:09;13.20;76.90
20568;DHT22;10442;49.932;11.592;2022-09-27T06:00:47;13.20;76.80
20568;DHT22;10442;49.932;11.592;2022-09-27T06:03:35;13.20;76.90
20568;DHT22;10442;49.932;11.592;2022-09-27T06:06:26;13.20;77.10
20568;DHT22;10442;49.932;11.592;2022-09-27T06:08:56;13.20;77.20
20568;DHT22;10442;49.932;11.592;2022-09-27T06:11:26;13.20;77.20
20568;DHT22;10442;49.932;11.592;2022-09-27T06:13:53;13.20;77.20
20568;DHT22;10442;49.932;11.592;2022-09-27T06:16:23;13.30;77.30
20568;DHT22;10442;49.932;11.592;2022-09-27T06:18:50;13.20;77.30
20568;DHT22;10442;49.932;11.592;2022-09-27T06:21:18;13.20;77.40
20568;DHT22;10442;49.932;11.592;2022-09-27T06:23:53;13.30;77.70
20568;DHT22;10442;49.932;11.592;2022-09-27T06:26:30;13.30;77.60
20568;DHT22;10442;49.932;11.592;2022-09-27T06:29:28;13.30;77.40
20568;DHT22;10442;49.932;11.592;2022-09-27T06:32:00;13.30;77.40
20568;DHT22;10442;49.932;11.592;2022-09-27T06:34:41;13.40;77.40
20568;DHT22;10442;49.932;11.592;2022-09-27T06:37:08;13.40;77.30
20568;DHT22;10442;49.932;11.592;2022-09-27T06:39:36;13.50;77.30
20568;DHT22;10442;49.932;11.592;2022-09-27T06:42:36;13.50;77.20
20568;DHT22;10442;49.932;11.592;2022-09-27T06:45:25;13.50;77.20
20568;DHT22;10442;49.932;11.592;2022-09-27T06:48:14;13.60;76.80
20568;DHT22;10442;49.932;11.592;2022-09-27T06:50:54;13.50;76.90
20568;DHT22;10442;49.932;11.592;2022-09-27T06:53:24;13.50;76.70
20568;DHT22;10442;49.932;11.592;2022-09-27T06:55:52;13.50;76.80
20568;DHT22;10442;49.932;11.592;2022-09-27T06:58:23;13.60;76.90
20568;DHT22;10442;49.932;11.592;2022-09-27T07:01:28;13.60;77.20
20568;DHT22;10442;49.932;11.592;2022-09-27T07:04:15;13.60;76.90
20568;DHT22;10442;49.932;11.592;2022-09-27T07:07:11;13.60;76.90
20568;DHT22;10442;49.932;11.592;2022-09-27T07:09:44;13.60;76.90
20568;DHT22;10442;49.932;11.592;2022-09-27T07:12:12;13.60;77.20
20568;DHT22;10442;49.932;11.592;2022-09-27T07:14:41;13.60;77.10
20568;DHT22;10442;49.932;11.592;2022-09-27T07:17:14;13.50;77.20
20568;DHT22;10442;49.932;11.592;2022-09-27T07:19:47;13.60;77.30
20568;DHT22;10442;49.932;11.592;2022-09-27T07:22:14;13.60;77.20
20568;DHT22;10442;49.932;11.592;2022-09-27T07:24:45;13.60;77.00
20568;DHT22;10442;49.932;11.592;2022-09-27T07:27:14;13.70;77.70
20568;DHT22;10442;49.932;11.592;2022-09-27T07:29:41;13.70;77.00
20568;DHT22;10442;49.932;11.592;2022-09-27T07:32:09;13.80;76.90
20568;DHT22;10442;49.932;11.592;2022-09-27T07:34:38;13.80;76.70
20568;DHT22;10442;49.932;11.592;2022-09-27T07:37:06;13.80;76.80
20568;DHT22;10442;49.932;11.592;2022-09-27T07:39:38;13.80;76.90
20568;DHT22;10442;49.932;11.592;2022-09-27T07:42:06;13.80;76.70
20568;DHT22;10442;49.932;11.592;2022-09-27T07:44:36;13.80;76.60
20568;DHT22;10442;49.932;11.592;2022-09-27T07:47:23;13.70;76.40
20568;DHT22;10442;49.932;11.592;2022-09-27T07:50:07;13.70;76.30
20568;DHT22;10442;49.932;11.592;2022-09-27T07:52:59;13.70;76.20
20568;DHT22;10442;49.932;11.592;2022-09-27T07:55:49;13.70;75.90
20568;DHT22;10442;49.932;11.592;2022-09-27T07:58:22;13.60;75.80
20568;DHT22;10442;49.932;11.592;2022-09-27T08:00:52;13.60;75.90
20568;DHT22;10442;49.932;11.592;2022-09-27T08:03:21;13.60;76.50
20568;DHT22;10442;49.932;11.592;2022-09-27T08:05:49;13.60;76.50
20568;DHT22;10442;49.932;11.592;2022-09-27T08:08:16;13.60;76.40
20568;DHT22;10442;49.932;11.592;2022-09-27T08:10:45;13.60;76.00
20568;DHT22;10442;49.932;11.592;2022-09-27T08:13:15;13.70;75.90
20568;DHT22;10442;49.932;11.592;2022-09-27T08:15:48;13.70;76.00
20568;DHT22;10442;49.932;11.592;2022-09-27T08:18:19;13.70;76.20
20568;DHT22;10442;49.932;11.592;2022-09-27T08:20:58;13.70;75.80
20568;DHT22;10442;49.932;11.592;2022-09-27T08:23:29;13.70;75.70
20568;DHT22;10442;49.932;11.592;2022-09-27T08:26:32;13.70;75.90
20568;DHT22;10442;49.932;11.592;2022-09-27T08:29:07;13.70;76.00
20568;DHT22;10442;49.932;11.592;2022-09-27T08:31:41;13.60;76.40
20568;DHT22;10442;49.932;11.592;2022-09-27T08:34:08;13.70;76.40
20568;DHT22;10442;49.932;11.592;2022-09-27T08:36:36;13.50;76.40
20568;DHT22;10442;49.932;11.592;2022-09-27T08:39:04;13.60;76.70
20568;DHT22;10442;49.932;11.592;2022-09-27T08:42:05;13.70;77.00
20568;DHT22;10442;49.932;11.592;2022-09-27T08:44:57;13.70;78.10
20568;DHT22;10442;49.932;11.592;2022-09-27T08:47:41;13.70;76.90
20568;DHT22;10442;49.932;11.592;2022-09-27T08:50:17;13.80;76.60
20568;DHT22;10442;49.932;11.592;2022-09-27T08:53:06;13.90;76.80
20568;DHT22;10442;49.932;11.592;2022-09-27T08:55:53;14.00;76.70
20568;DHT22;10442;49.932;11.592;2022-09-27T08:58:36;14.00;76.40
20568;DHT22;10442;49.932;11.592;2022-09-27T09:01:16;14.00;75.70
20568;DHT22;10442;49.932;11.592;2022-09-27T09:03:57;14.00;75.40
20568;DHT22;10442;49.932;11.592;2022-09-27T09:06:58;13.90;74.70
20568;DHT22;10442;49.932;11.592;2022-09-27T09:09:43;13.80;74.70
20568;DHT22;10442;49.932;11.592;2022-09-27T09:21:58;13.60;75.00
20568;DHT22;10442;49.932;11.592;2022-09-27T09:33:29;13.40;75.00
20568;DHT22;10442;49.932;11.592;2022-09-27T09:36:05;13.50;75.90
20568;DHT22;10442;49.932;11.592;2022-09-27T09:38:49;13.50;76.00
20568;DHT22;10442;49.932;11.592;2022-09-27T09:41:37;13.50;76.00
20568;DHT22;10442;49.932;11.592;2022-09-27T09:44:16;13.60;75.90
20568;DHT22;10442;49.932;11.592;2022-09-27T09:46:50;13.70;76.60
20568;DHT22;10442;49.932;11.592;2022-09-27T09:49:29;13.80;76.60
20568;DHT22;10442;49.932;11.592;2022-09-27T09:52:06;13.80;76.60
20568;DHT22;10442;49.932;11.592;2022-09-27T09:54:38;14.00;76.60
20568;DHT22;10442;49.932;11.592;2022-09-27T09:57:14;14.10;76.50
20568;DHT22;10442;49.932;11.592;2022-09-27T09:59:54;14.10;76.20
20568;DHT22;10442;49.932;11.592;2022-09-27T10:02:32;14.30;76.30
20568;DHT22;10442;49.932;11.592;2022-09-27T10:05:14;14.40;76.00
20568;DHT22;10442;49.932;11.592;2022-09-27T10:07:43;14.50;75.20
20568;DHT22;10442;49.932;11.592;2022-09-27T10:10:14;14.50;74.80
20568;DHT22;10442;49.932;11.592;2022-09-27T10:12:55;14.60;74.90
20568;DHT22;10442;49.932;11.592;2022-09-27T10:15:29;14.60;75.10
20568;DHT22;10442;49.932;11.592;2022-09-27T10:17:58;14.70;74.70
20568;DHT22;10442;49.932;11.592;2022-09-27T10:20:42;14.70;73.60
20568;DHT22;10442;49.932;11.592;2022-09-27T10:23:17;14.70;72.70
20568;DHT22;10442;49.932;11.592;2022-09-27T10:26:04;14.70;72.90
20568;DHT22;10442;49.932;11.592;2022-09-27T10:28:38;14.70;73.00
20568;DHT22;10442;49.932;11.592;2022-09-27T10:31:14;14.60;72.50
20568;DHT22;10442;49.932;11.592;2022-09-27T10:37:21;14.60;73.60
20568;DHT22;10442;49.932;11.592;2022-09-27T10:39:58;14.60;73.70
20568;DHT22;10442;49.932;11.592;2022-09-27T10:42:37;14.60;73.30
20568;DHT22;10442;49.932;11.592;2022-09-27T10:45:31;14.70;72.90
20568;DHT22;10442;49.932;11.592;2022-09-27T10:48:18;14.60;72.40
20568;DHT22;10442;49.932;11.592;2022-09-27T10:51:07;14.60;72.70
20568;DHT22;10442;49.932;11.592;2022-09-27T10:53:49;14.60;73.30
20568;DHT22;10442;49.932;11.592;2022-09-27T10:56:24;14.60;73.60
20568;DHT22;10442;49.932;11.592;2022-09-27T10:58:55;14.60;73.40
20568;DHT22;10442;49.932;11.592;2022-09-27T11:01:25;14.60;73.60
20568;DHT22;10442;49.932;11.592;2022-09-27T11:04:29;14.60;73.80
20568;DHT22;10442;49.932;11.592;2022-09-27T11:07:26;14.50;73.90
20568;DHT22;10442;49.932;11.592;2022-09-27T11:10:26;14.50;74.30
20568;DHT22;10442;49.932;11.592;2022-09-27T11:13:25;14.50;75.60
20568;DHT22;10442;49.932;11.592;2022-09-27T11:16:34;14.60;75.80
20568;DHT22;10442;49.932;11.592;2022-09-27T11:22:07;14.80;75.10
20568;DHT22;10442;49.932;11.592;2022-09-27T11:27:58;14.80;73.90
20568;DHT22;10442;49.932;11.592;2022-09-27T11:39:57;14.40;72.70
20568;DHT22;10442;49.932;11.592;2022-09-27T11:45:42;14.20;73.40
20568;DHT22;10442;49.932;11.592;2022-09-27T11:48:38;14.10;74.60
20568;DHT22;10442;49.932;11.592;2022-09-27T11:51:17;14.00;74.00
20568;DHT22;10442;49.932;11.592;2022-09-27T11:57:03;13.90;73.90
20568;DHT22;10442;49.932;11.592;2022-09-27T12:09:09;13.90;74.90
20568;DHT22;10442;49.932;11.592;2022-09-27T12:17:24;14.00;74.80
20568;DHT22;10442;49.932;11.592;2022-09-27T12:19:59;14.00;75.20
20568;DHT22;10442;49.932;11.592;2022-09-27T12:23:00;14.10;75.90
20568;DHT22;10442;49.932;11.592;2022-09-27T12:25:59;14.20;75.50
20568;DHT22;10442;49.932;11.592;2022-09-27T12:31:34;14.50;75.70
20568;DHT22;10442;49.932;11.592;2022-09-27T12:34:17;14.60;75.50
20568;DHT22;10442;49.932;11.592;2022-09-27T12:40:14;15.00;75.30
20568;DHT22;10442;49.932;11.592;2022-09-27T12:42:47;15.20;74.30
20568;DHT22;10442;49.932;11.592;2022-09-27T12:51:09;15.50;72.30
20568;DHT22;10442;49.932;11.592;2022-09-27T12:54:05;15.60;71.90
20568;DHT22;10442;49.932;11.592;2022-09-27T12:59:50;15.70;72.20
20568;DHT22;10442;49.932;11.592;2022-09-27T13:08:17;15.90;70.10
20568;DHT22;10442;49.932;11.592;2022-09-27T13:13:42;16.10;71.10
20568;DHT22;10442;49.932;11.592;2022-09-27T13:16:11;16.10;69.60
20568;DHT22;10442;49.932;11.592;2022-09-27T13:24:46;16.30;67.30
20568;DHT22;10442;49.932;11.592;2022-09-27T13:27:36;16.30;66.90
20568;DHT22;10442;49.932;11.592;2022-09-27T13:32:39;16.30;66.60
20568;DHT22;10442;49.932;11.592;2022-09-27T13:35:22;16.30;66.00
20568;DHT22;10442;49.932;11.592;2022-09-27T13:38:21;16.20;65.80
20568;DHT22;10442;49.932;11.592;2022-09-27T13:40:53;16.20;65.80
20568;DHT22;10442;49.932;11.592;2022-09-27T13:43:51;16.20;65.50
20568;DHT22;10442;49.932;11.592;2022-09-27T13:46:32;16.10;65.90
20568;DHT22;10442;49.932;11.592;2022-09-27T13:49:12;15.90;65.70
20568;DHT22;10442;49.932;11.592;2022-09-27T13:52:29;15.90;66.00
20568;DHT22;10442;49.932;11.592;2022-09-27T14:00:52;15.60;66.00
20568;DHT22;10442;49.932;11.592;2022-09-27T14:03:30;15.60;65.90
20568;DHT22;10442;49.932;11.592;2022-09-27T14:06:30;15.50;66.20
20568;DHT22;10442;49.932;11.592;2022-09-27T14:09:05;15.50;66.30
20568;DHT22;10442;49.932;11.592;2022-09-27T14:11:39;15.40;66.60
20568;DHT22;10442;49.932;11.592;2022-09-27T14:14:14;15.40;66.60
20568;DHT22;10442;49.932;11.592;2022-09-27T14:16:49;15.20;66.00
20568;DHT22;10442;49.932;11.592;2022-09-27T14:19:22;15.20;66.50
20568;DHT22;10442;49.932;11.592;2022-09-27T14:21:52;15.20;67.20
20568;DHT22;10442;49.932;11.592;2022-09-27T14:27:36;15.10;67.80
20568;DHT22;10442;49.932;11.592;2022-09-27T14:30:19;15.10;68.00
20568;DHT22;10442;49.932;11.592;2022-09-27T14:32:55;15.10;67.50
20568;DHT22;10442;49.932;11.592;2022-09-27T14:35:47;15.10;67.60
20568;DHT22;10442;49.932;11.592;2022-09-27T14:38:35;15.10;67.70
20568;DHT22;10442;49.932;11.592;2022-09-27T14:41:15;15.00;67.90
20568;DHT22;10442;49.932;11.592;2022-09-27T14:43:45;15.00;68.30
20568;DHT22;10442;49.932;11.592;2022-09-27T14:46:29;15.00;68.20
20568;DHT22;10442;49.932;11.592;2022-09-27T14:49:08;14.90;68.40
20568;DHT22;10442;49.932;11.592;2022-09-27T14:51:37;14.80;68.10
20568;DHT22;10442;49.932;11.592;2022-09-27T14:54:05;14.70;68.60
20568;DHT22;10442;49.932;11.592;2022-09-27T14:56:37;14.60;69.50
20568;DHT22;10442;49.932;11.592;2022-09-27T14:59:15;14.50;70.20
20568;DHT22;10442;49.932;11.592;2022-09-27T15:01:49;14.40;69.20
20568;DHT22;10442;49.932;11.592;2022-09-27T15:04:18;14.30;69.60
20568;DHT22;10442;49.932;11.592;2022-09-27T15:06:48;14.20;69.20
20568;DHT22;10442;49.932;11.592;2022-09-27T15:09:17;14.00;69.20
20568;DHT22;10442;49.932;11.592;2022-09-27T15:11:49;13.90;69.50
20568;DHT22;10442;49.932;11.592;2022-09-27T15:14:20;14.00;70.00
20568;DHT22;10442;49.932;11.592;2022-09-27T15:16:49;13.70;70.60
20568;DHT22;10442;49.932;11.592;2022-09-27T15:19:24;13.80;71.00
20568;DHT22;10442;49.932;11.592;2022-09-27T15:21:52;13.70;70.90
20568;DHT22;10442;49.932;11.592;2022-09-27T15:25:02;13.70;71.20
20568;DHT22;10442;49.932;11.592;2022-09-27T15:27:27;13.70;71.40
20568;DHT22;10442;49.932;11.592;2022-09-27T15:29:56;13.70;71.80
20568;DHT22;10442;49.932;11.592;2022-09-27T15:32:26;13.70;71.60
20568;DHT22;10442;49.932;11.592;2022-09-27T15:34:55;13.70;71.70
20568;DHT22;10442;49.932;11.592;2022-09-27T15:37:25;13.70;71.90
20568;DHT22;10442;49.932;11.592;2022-09-27T15:39:53;13.70;71.90
20568;DHT22;10442;49.932;11.592;2022-09-27T15:42:21;13.70;71.80
20568;DHT22;10442;49.932;11.592;2022-09-27T15:44:53;13.70;72.20
20568;DHT22;10442;49.932;11.592;2022-09-27T15:49:58;13.60;72.40
20568;DHT22;10442;49.932;11.592;2022-09-27T15:52:46;13.60;72.50
20568;DHT22;10442;49.932;11.592;2022-09-27T15:55:19;13.60;72.60
20568;DHT22;10442;49.932;11.592;2022-09-27T15:58:09;13.60;72.90
20568;DHT22;10442;49.932;11.592;2022-09-27T16:00:53;13.60;73.10
20568;DHT22;10442;49.932;11.592;2022-09-27T16:03:23;13.70;73.00
20568;DHT22;10442;49.932;11.592;2022-09-27T16:05:52;13.70;73.10
20568;DHT22;10442;49.932;11.592;2022-09-27T16:08:22;13.70;73.00
20568;DHT22;10442;49.932;11.592;2022-09-27T16:10:53;13.70;73.00
20568;DHT22;10442;49.932;11.592;2022-09-27T16:13:24;13.80;73.10
20568;DHT22;10442;49.932;11.592;2022-09-27T16:16:01;13.80;73.00
20568;DHT22;10442;49.932;11.592;2022-09-27T16:18:29;13.80;72.80
20568;DHT22;10442;49.932;11.592;2022-09-27T16:20:59;13.80;72.60
20568;DHT22;10442;49.932;11.592;2022-09-27T16:23:26;13.70;72.50
20568;DHT22;10442;49.932;11.592;2022-09-27T16:25:54;13.70;72.50
20568;DHT22;10442;49.932;11.592;2022-09-27T16:28:21;13.70;72.60
20568;DHT22;10442;49.932;11.592;2022-09-27T16:30:49;13.70;72.80
20568;DHT22;10442;49.932;11.592;2022-09-27T16:33:17;13.60;72.90
20568;DHT22;10442;49.932;11.592;2022-09-27T16:35:44;13.60;72.90
20568;DHT22;10442;49.932;11.592;2022-09-27T16:38:12;13.50;73.00
20568;DHT22;10442;49.932;11.592;2022-09-27T16:40:39;13.50;73.10
20568;DHT22;10442;49.932;11.592;2022-09-27T16:43:06;13.40;73.20
20568;DHT22;10442;49.932;11.592;2022-09-27T16:45:34;13.30;73.20
20568;DHT22;10442;49.932;11.592;2022-09-27T16:48:03;13.30;73.30
20568;DHT22;10442;49.932;11.592;2022-09-27T16:50:30;13.20;73.40
20568;DHT22;10442;49.932;11.592;2022-09-27T16:53:17;13.10;73.60
20568;DHT22;10442;49.932;11.592;2022-09-27T16:55:44;13.10;73.90
20568;DHT22;10442;49.932;11.592;2022-09-27T16:58:12;13.00;74.00
20568;DHT22;10442;49.932;11.592;2022-09-27T17:00:39;13.00;74.10
20568;DHT22;10442;49.932;11.592;2022-09-27T17:03:08;13.00;74.10
20568;DHT22;10442;49.932;11.592;2022-09-27T17:05:36;12.90;74.30
20568;DHT22;10442;49.932;11.592;2022-09-27T17:08:03;12.90;74.30
20568;DHT22;10442;49.932;11.592;2022-09-27T17:10:31;12.80;74.60
20568;DHT22;10442;49.932;11.592;2022-09-27T17:12:58;12.80;74.60
20568;DHT22;10442;49.932;11.592;2022-09-27T17:15:27;12.80;74.80
20568;DHT22;10442;49.932;11.592;2022-09-27T17:17:56;12.80;74.90
20568;DHT22;10442;49.932;11.592;2022-09-27T17:20:25;12.70;75.50
20568;DHT22;10442;49.932;11.592;2022-09-27T17:22:53;12.70;74.90
20568;DHT22;10442;49.932;11.592;2022-09-27T17:25:20;12.70;75.00
20568;DHT22;10442;49.932;11.592;2022-09-27T17:27:48;12.70;75.00
20568;DHT22;10442;49.932;11.592;2022-09-27T17:30:15;12.70;75.00
20568;DHT22;10442;49.932;11.592;2022-09-27T17:32:43;12.70;74.90
20568;DHT22;10442;49.932;11.592;2022-09-27T17:35:10;12.70;74.90
20568;DHT22;10442;49.932;11.592;2022-09-27T17:37:37;12.70;75.00
20568;DHT22;10442;49.932;11.592;2022-09-27T17:40:05;12.60;75.00
20568;DHT22;10442;49.932;11.592;2022-09-27T17:42:32;12.70;75.10
20568;DHT22;10442;49.932;11.592;2022-09-27T17:45:02;12.70;75.00
20568;DHT22;10442;49.932;11.592;2022-09-27T17:47:30;12.60;74.80
20568;DHT22;10442;49.932;11.592;2022-09-27T17:50:16;12.60;74.90
20568;DHT22;10442;49.932;11.592;2022-09-27T17:52:56;12.60;75.20
20568;DHT22;10442;49.932;11.592;2022-09-27T17:55:25;12.70;75.30
20568;DHT22;10442;49.932;11.592;2022-09-27T17:57:53;12.60;75.20
20568;DHT22;10442;49.932;11.592;2022-09-27T18:00:21;12.70;75.40
20568;DHT22;10442;49.932;11.592;2022-09-27T18:02:49;12.70;75.10
20568;DHT22;10442;49.932;11.592;2022-09-27T18:05:16;12.60;74.90
20568;DHT22;10442;49.932;11.592;2022-09-27T18:07:47;12.60;74.80
20568;DHT22;10442;49.932;11.592;2022-09-27T18:10:15;12.60;74.90
20568;DHT22;10442;49.932;11.592;2022-09-27T18:12:44;12.70;75.10
20568;DHT22;10442;49.932;11.592;2022-09-27T18:15:11;12.70;76.00
20568;DHT22;10442;49.932;11.592;2022-09-27T18:17:39;12.60;75.20
20568;DHT22;10442;49.932;11.592;2022-09-27T18:20:06;12.60;75.10
20568;DHT22;10442;49.932;11.592;2022-09-27T18:22:34;12.60;75.00
20568;DHT22;10442;49.932;11.592;2022-09-27T18:25:02;12.60;74.90
20568;DHT22;10442;49.932;11.592;2022-09-27T18:27:31;12.60;74.80
20568;DHT22;10442;49.932;11.592;2022-09-27T18:30:01;12.60;74.80